Aérodrome :
LOGIN :

S'inscrire | Disclaimer

   EN    FR    IT 

 










Légende :    VFR   VFR Marginal   IFR   IFR Intensif   IFR Très Intensif
Visi : 
Plafond : 
>= 8 km
>= 3000ft
5 à 8 km
1000 à 3000 ft
1500m à 5 km
500 à 1000 ft
800 à 1500m
200 à 500 ft
< 800m
< 200 ft
Symboles :   Orages  Brouillard  Fortes neiges  Fortes précipitations  Vent > 20 kt
SIGMETs :   Divers  Orages  Givrage  Turbulence  Onde Orograph.  Cendres Volcan.







- Altitude de l'aérodrome : 13 ft
- Code IATA : GOA


LIMJ - Genoa Cristoforo Colombo

DERNIER METAR :
  • 222020Z 23005KT 190V250 9999 FEW020 25/22 Q1015

METARs EXPIRÉS :
  • 221950Z 21004KT 9999 FEW020 25/22 Q1015
  • 221920Z 22004KT 9999 FEW020 26/22 Q1015
  • 221850Z 22004KT 9999 FEW020 25/22 Q1014
  • 221820Z 21005KT 9999 FEW020 26/22 Q1014
  • 221750Z 20005KT 9999 FEW020 26/22 Q1014

TAF TAF LIMJ
Valide du 22 à 18h jusqu'au 23 à 18h UTC


221700Z 2218/2318 16006KT 9999 SCT025
Pas de NOTAMs connus pour ce terrain.
1 SIGMET publié pour la FIR Milano (LIMM) :
 
Orages noyés dans la masse
LIMM SIGMET 2 VALID 221855/222055 LIMM- LIMM MILANO FIR EMBD TS OBS N OF LINE N4509 E00639 - N4608 E00853 TOP FL380 MOV ENE INTSF=



MET'MAP, la Météo Aéronautique d'un coup d'oeil ! - Copyright ORBIFLY Décembre 2007 - Disclaimer

ORBIFLY MET'MAP TEAM :

Programmation & Développement : Alexandra Zaïnal
Conception & Développement : Baudouin d'Aumeries
Co-Programmation & Développement : Marc-Olivier Méhu
Soutien technique & logistique : Manuel Goepfert

Contact : metmap@orbifly.com




SOURCES & CREDITS :

   NOAA